Terminal Aerodrome Forecast
Issued by NWS Mt. Holly, NJ

Home | Current Version | Previous Version | Text Only | Print | Product List | Glossary On
Versions: 1 2 3 4 5 6 7 8 9 10 11 12 13 14 15 16 17 18 19 20
000
FTAK31 PANC 301503 AAA
TAFABE
TAF AMD
PABE 301503Z 3015/3112 13008KT 1/4SM FG OVC002
      TEMPO 3015/3018 2SM BR SCT002
     FM301800 07010KT P6SM FEW002 SCT200
     FM302300 16017G24KT P6SM VCSH SCT080 BKN150
     FM310500 13009KT P6SM VCSH SCT040 BKN070=

USA.gov is the U.S. government's official web portal to all federal, state and local government web resources and services.